Decoded Metar for SBCZ (CRUIZIRO DO SUL in BRAZIL) (IATA:CZS) | Meteo·Mobile Aviation Weather
aviador You're here:

SBCZ Decoded Metar

CRUIZIRO DO SUL in BRAZIL
Report Time2018-09-21 04:00:00
UTC Time2018-09-21 04:46:52
Flight Rules vfr VFR
WindCalm
Visibility9999 m
Phenomena:N/A
Clouds:N/A
Expected CloudBase > 400 ft AGL from Temp-Dew spread
CeilingNone
Temp22°C (ISA +8)
Dew Point21°C (94% RH)
QNH1012 hPa
Density Alt1,867 ft
Elevation558 ft
Report Wrong Elevation
Raw Report
METAR SBCZ 210400Z 00000KT CAVOK 22/21 Q1012=

Extra information for SBCZ:More info

Metar Taf Metar & Taf Last 4 Metars F.Rules Stats Wind Profile Meteogram Temp Stats Airport Information Weather charts Add Link Nearby VenuesMetar ALERT Operation Metar Decoded Social comments